sensor_id;sensor_type;location;lat;lon;timestamp;temperature;humidity
7254;DHT22;4060;49.186;9.226;2023-05-15T00:01:27;19.90;52.00
7254;DHT22;4060;49.186;9.226;2023-05-15T00:03:57;19.90;52.10
7254;DHT22;4060;49.186;9.226;2023-05-15T00:06:27;19.90;52.10
7254;DHT22;4060;49.186;9.226;2023-05-15T00:08:57;19.90;52.20
7254;DHT22;4060;49.186;9.226;2023-05-15T00:11:27;19.80;52.10
7254;DHT22;4060;49.186;9.226;2023-05-15T00:13:57;19.90;52.20
7254;DHT22;4060;49.186;9.226;2023-05-15T00:16:27;19.80;52.20
7254;DHT22;4060;49.186;9.226;2023-05-15T00:18:56;19.80;52.30
7254;DHT22;4060;49.186;9.226;2023-05-15T00:21:26;19.80;52.40
7254;DHT22;4060;49.186;9.226;2023-05-15T00:23:55;19.80;52.40
7254;DHT22;4060;49.186;9.226;2023-05-15T00:26:27;19.80;52.50
7254;DHT22;4060;49.186;9.226;2023-05-15T00:28:57;19.70;52.40
7254;DHT22;4060;49.186;9.226;2023-05-15T00:31:28;19.70;52.40
7254;DHT22;4060;49.186;9.226;2023-05-15T00:33:59;19.70;52.50
7254;DHT22;4060;49.186;9.226;2023-05-15T00:36:28;19.70;52.50
7254;DHT22;4060;49.186;9.226;2023-05-15T00:38:58;19.70;52.60
7254;DHT22;4060;49.186;9.226;2023-05-15T00:41:30;19.70;52.60
7254;DHT22;4060;49.186;9.226;2023-05-15T00:44:00;19.60;52.60
7254;DHT22;4060;49.186;9.226;2023-05-15T00:46:31;19.60;52.60
7254;DHT22;4060;49.186;9.226;2023-05-15T00:49:00;19.60;52.70
7254;DHT22;4060;49.186;9.226;2023-05-15T00:51:31;19.60;52.70
7254;DHT22;4060;49.186;9.226;2023-05-15T00:54:00;19.60;52.70
7254;DHT22;4060;49.186;9.226;2023-05-15T00:56:32;19.60;52.80
7254;DHT22;4060;49.186;9.226;2023-05-15T00:59:03;19.50;52.70
7254;DHT22;4060;49.186;9.226;2023-05-15T01:01:32;19.50;53.00
7254;DHT22;4060;49.186;9.226;2023-05-15T01:04:03;19.50;52.80
7254;DHT22;4060;49.186;9.226;2023-05-15T01:06:32;19.50;52.80
7254;DHT22;4060;49.186;9.226;2023-05-15T01:09:02;19.50;52.90
7254;DHT22;4060;49.186;9.226;2023-05-15T01:11:36;19.50;52.90
7254;DHT22;4060;49.186;9.226;2023-05-15T01:14:06;19.40;52.90
7254;DHT22;4060;49.186;9.226;2023-05-15T01:16:36;19.40;53.00
7254;DHT22;4060;49.186;9.226;2023-05-15T01:19:06;19.40;53.00
7254;DHT22;4060;49.186;9.226;2023-05-15T01:27:43;19.40;53.10
7254;DHT22;4060;49.186;9.226;2023-05-15T01:30:21;19.30;53.10
7254;DHT22;4060;49.186;9.226;2023-05-15T01:33:04;19.30;53.10
7254;DHT22;4060;49.186;9.226;2023-05-15T01:35:42;19.30;53.20
7254;DHT22;4060;49.186;9.226;2023-05-15T01:38:23;19.30;53.20
7254;DHT22;4060;49.186;9.226;2023-05-15T01:41:01;19.30;53.30
7254;DHT22;4060;49.186;9.226;2023-05-15T01:43:34;19.20;53.20
7254;DHT22;4060;49.186;9.226;2023-05-15T01:46:08;19.20;53.30
7254;DHT22;4060;49.186;9.226;2023-05-15T01:48:40;19.20;53.30
7254;DHT22;4060;49.186;9.226;2023-05-15T01:51:14;19.20;53.40
7254;DHT22;4060;49.186;9.226;2023-05-15T01:53:44;19.20;53.40
7254;DHT22;4060;49.186;9.226;2023-05-15T01:56:15;19.20;53.50
7254;DHT22;4060;49.186;9.226;2023-05-15T01:58:48;19.20;53.50
7254;DHT22;4060;49.186;9.226;2023-05-15T02:01:18;19.20;53.50
7254;DHT22;4060;49.186;9.226;2023-05-15T02:03:48;19.20;53.60
7254;DHT22;4060;49.186;9.226;2023-05-15T02:06:19;19.10;53.60
7254;DHT22;4060;49.186;9.226;2023-05-15T02:08:50;19.10;53.60
7254;DHT22;4060;49.186;9.226;2023-05-15T02:11:21;19.10;53.60
7254;DHT22;4060;49.186;9.226;2023-05-15T02:13:53;19.10;53.70
7254;DHT22;4060;49.186;9.226;2023-05-15T02:16:23;19.10;53.80
7254;DHT22;4060;49.186;9.226;2023-05-15T02:18:53;19.10;53.80
7254;DHT22;4060;49.186;9.226;2023-05-15T02:21:23;19.00;53.70
7254;DHT22;4060;49.186;9.226;2023-05-15T02:23:53;19.00;53.80
7254;DHT22;4060;49.186;9.226;2023-05-15T02:26:29;19.00;53.80
7254;DHT22;4060;49.186;9.226;2023-05-15T02:29:09;19.00;53.90
7254;DHT22;4060;49.186;9.226;2023-05-15T02:31:49;19.00;54.00
7254;DHT22;4060;49.186;9.226;2023-05-15T02:34:29;19.00;54.00
7254;DHT22;4060;49.186;9.226;2023-05-15T02:37:04;19.00;54.10
7254;DHT22;4060;49.186;9.226;2023-05-15T02:39:35;18.90;54.00
7254;DHT22;4060;49.186;9.226;2023-05-15T02:42:06;18.90;54.00
7254;DHT22;4060;49.186;9.226;2023-05-15T02:44:38;18.90;54.10
7254;DHT22;4060;49.186;9.226;2023-05-15T02:47:09;18.90;54.10
7254;DHT22;4060;49.186;9.226;2023-05-15T02:49:39;18.90;54.20
7254;DHT22;4060;49.186;9.226;2023-05-15T02:52:09;18.90;54.20
7254;DHT22;4060;49.186;9.226;2023-05-15T02:54:39;18.90;54.30
7254;DHT22;4060;49.186;9.226;2023-05-15T02:57:09;18.80;54.20
7254;DHT22;4060;49.186;9.226;2023-05-15T02:59:40;18.80;54.30
7254;DHT22;4060;49.186;9.226;2023-05-15T03:02:11;18.80;54.30
7254;DHT22;4060;49.186;9.226;2023-05-15T03:04:40;18.80;54.30
7254;DHT22;4060;49.186;9.226;2023-05-15T03:07:09;18.80;54.40
7254;DHT22;4060;49.186;9.226;2023-05-15T03:09:38;18.80;54.90
7254;DHT22;4060;49.186;9.226;2023-05-15T03:12:09;18.80;54.40
7254;DHT22;4060;49.186;9.226;2023-05-15T03:14:41;18.70;54.40
7254;DHT22;4060;49.186;9.226;2023-05-15T03:17:11;18.70;54.40
7254;DHT22;4060;49.186;9.226;2023-05-15T03:19:41;18.70;54.40
7254;DHT22;4060;49.186;9.226;2023-05-15T03:22:14;18.70;54.50
7254;DHT22;4060;49.186;9.226;2023-05-15T03:24:43;18.70;54.50
7254;DHT22;4060;49.186;9.226;2023-05-15T03:27:13;18.70;54.50
7254;DHT22;4060;49.186;9.226;2023-05-15T03:29:44;18.70;54.60
7254;DHT22;4060;49.186;9.226;2023-05-15T03:32:15;18.70;54.60
7254;DHT22;4060;49.186;9.226;2023-05-15T03:34:44;18.70;54.60
7254;DHT22;4060;49.186;9.226;2023-05-15T03:37:14;18.60;54.60
7254;DHT22;4060;49.186;9.226;2023-05-15T03:39:43;18.60;54.60
7254;DHT22;4060;49.186;9.226;2023-05-15T03:42:13;18.60;54.60
7254;DHT22;4060;49.186;9.226;2023-05-15T03:44:51;18.60;54.70
7254;DHT22;4060;49.186;9.226;2023-05-15T03:47:24;18.60;54.70
7254;DHT22;4060;49.186;9.226;2023-05-15T03:49:53;18.60;54.70
7254;DHT22;4060;49.186;9.226;2023-05-15T03:52:23;18.50;54.70
7254;DHT22;4060;49.186;9.226;2023-05-15T03:54:53;18.60;54.80
7254;DHT22;4060;49.186;9.226;2023-05-15T03:57:22;18.50;54.80
7254;DHT22;4060;49.186;9.226;2023-05-15T03:59:54;18.50;54.80
7254;DHT22;4060;49.186;9.226;2023-05-15T04:02:23;18.50;54.90
7254;DHT22;4060;49.186;9.226;2023-05-15T04:04:53;18.50;54.90
7254;DHT22;4060;49.186;9.226;2023-05-15T04:07:23;18.50;54.90
7254;DHT22;4060;49.186;9.226;2023-05-15T04:09:52;18.50;54.90
7254;DHT22;4060;49.186;9.226;2023-05-15T04:12:22;18.40;54.90
7254;DHT22;4060;49.186;9.226;2023-05-15T04:17:25;18.40;54.90
7254;DHT22;4060;49.186;9.226;2023-05-15T04:19:56;18.40;55.00
7254;DHT22;4060;49.186;9.226;2023-05-15T04:22:26;18.40;55.00
7254;DHT22;4060;49.186;9.226;2023-05-15T04:24:56;18.40;55.10
7254;DHT22;4060;49.186;9.226;2023-05-15T04:27:25;18.40;55.10
7254;DHT22;4060;49.186;9.226;2023-05-15T04:29:57;18.40;55.10
7254;DHT22;4060;49.186;9.226;2023-05-15T04:32:27;18.30;55.10
7254;DHT22;4060;49.186;9.226;2023-05-15T04:34:57;18.30;55.10
7254;DHT22;4060;49.186;9.226;2023-05-15T04:37:27;18.30;55.10
7254;DHT22;4060;49.186;9.226;2023-05-15T04:39:57;18.30;55.20
7254;DHT22;4060;49.186;9.226;2023-05-15T04:42:26;18.30;55.20
7254;DHT22;4060;49.186;9.226;2023-05-15T04:44:58;18.30;55.30
7254;DHT22;4060;49.186;9.226;2023-05-15T04:47:28;18.30;55.30
7254;DHT22;4060;49.186;9.226;2023-05-15T04:49:58;18.30;55.30
7254;DHT22;4060;49.186;9.226;2023-05-15T04:52:27;18.20;55.20
7254;DHT22;4060;49.186;9.226;2023-05-15T04:54:58;18.20;55.30
7254;DHT22;4060;49.186;9.226;2023-05-15T04:57:28;18.20;55.30
7254;DHT22;4060;49.186;9.226;2023-05-15T05:00:00;18.20;55.30
7254;DHT22;4060;49.186;9.226;2023-05-15T05:02:33;18.20;55.40
7254;DHT22;4060;49.186;9.226;2023-05-15T05:05:04;18.20;55.50
7254;DHT22;4060;49.186;9.226;2023-05-15T05:07:33;18.10;55.40
7254;DHT22;4060;49.186;9.226;2023-05-15T05:10:03;18.10;55.40
7254;DHT22;4060;49.186;9.226;2023-05-15T05:12:33;18.10;55.50
7254;DHT22;4060;49.186;9.226;2023-05-15T05:15:05;18.10;55.60
7254;DHT22;4060;49.186;9.226;2023-05-15T05:17:35;18.10;55.90
7254;DHT22;4060;49.186;9.226;2023-05-15T05:20:05;18.20;56.10
7254;DHT22;4060;49.186;9.226;2023-05-15T05:22:36;18.20;56.30
7254;DHT22;4060;49.186;9.226;2023-05-15T05:25:07;18.20;56.40
7254;DHT22;4060;49.186;9.226;2023-05-15T05:27:36;18.20;56.50
7254;DHT22;4060;49.186;9.226;2023-05-15T05:30:08;18.30;56.60
7254;DHT22;4060;49.186;9.226;2023-05-15T05:32:38;18.30;56.80
7254;DHT22;4060;49.186;9.226;2023-05-15T05:35:09;18.30;56.90
7254;DHT22;4060;49.186;9.226;2023-05-15T05:37:39;18.30;57.00
7254;DHT22;4060;49.186;9.226;2023-05-15T05:40:10;18.40;57.20
7254;DHT22;4060;49.186;9.226;2023-05-15T05:42:40;18.40;57.90
7254;DHT22;4060;49.186;9.226;2023-05-15T05:45:11;18.50;57.50
7254;DHT22;4060;49.186;9.226;2023-05-15T05:47:41;18.50;57.60
7254;DHT22;4060;49.186;9.226;2023-05-15T05:50:10;18.50;57.70
7254;DHT22;4060;49.186;9.226;2023-05-15T05:52:41;18.60;57.80
7254;DHT22;4060;49.186;9.226;2023-05-15T05:55:10;18.60;57.90
7254;DHT22;4060;49.186;9.226;2023-05-15T05:57:40;18.60;57.80
7254;DHT22;4060;49.186;9.226;2023-05-15T06:00:13;18.70;58.00
7254;DHT22;4060;49.186;9.226;2023-05-15T06:02:42;18.70;58.00
7254;DHT22;4060;49.186;9.226;2023-05-15T06:05:12;18.70;58.00
7254;DHT22;4060;49.186;9.226;2023-05-15T06:07:41;18.80;57.90
7254;DHT22;4060;49.186;9.226;2023-05-15T06:10:11;18.80;57.90
7254;DHT22;4060;49.186;9.226;2023-05-15T06:12:41;18.80;57.90
7254;DHT22;4060;49.186;9.226;2023-05-15T06:15:13;18.90;58.00
7254;DHT22;4060;49.186;9.226;2023-05-15T06:17:42;18.90;58.00
7254;DHT22;4060;49.186;9.226;2023-05-15T06:20:12;18.90;58.00
7254;DHT22;4060;49.186;9.226;2023-05-15T06:22:42;18.90;58.10
7254;DHT22;4060;49.186;9.226;2023-05-15T06:25:11;18.90;58.20
7254;DHT22;4060;49.186;9.226;2023-05-15T06:27:41;19.00;58.30
7254;DHT22;4060;49.186;9.226;2023-05-15T06:30:13;19.00;58.30
7254;DHT22;4060;49.186;9.226;2023-05-15T06:32:43;19.10;58.40
7254;DHT22;4060;49.186;9.226;2023-05-15T06:35:13;19.10;58.90
7254;DHT22;4060;49.186;9.226;2023-05-15T06:37:42;19.20;58.50
7254;DHT22;4060;49.186;9.226;2023-05-15T06:40:17;19.20;58.40
7254;DHT22;4060;49.186;9.226;2023-05-15T06:42:46;19.20;58.30
7254;DHT22;4060;49.186;9.226;2023-05-15T06:45:18;19.20;58.20
7254;DHT22;4060;49.186;9.226;2023-05-15T06:47:47;19.30;58.20
7254;DHT22;4060;49.186;9.226;2023-05-15T06:50:17;19.30;58.20
7254;DHT22;4060;49.186;9.226;2023-05-15T06:52:46;19.30;58.10
7254;DHT22;4060;49.186;9.226;2023-05-15T06:55:15;19.30;58.20
7254;DHT22;4060;49.186;9.226;2023-05-15T06:57:45;19.30;58.30
7254;DHT22;4060;49.186;9.226;2023-05-15T07:00:17;19.40;58.50
7254;DHT22;4060;49.186;9.226;2023-05-15T07:02:47;19.40;58.40
7254;DHT22;4060;49.186;9.226;2023-05-15T07:05:16;19.40;58.90
7254;DHT22;4060;49.186;9.226;2023-05-15T07:07:46;19.50;58.40
7254;DHT22;4060;49.186;9.226;2023-05-15T07:10:15;19.50;58.30
7254;DHT22;4060;49.186;9.226;2023-05-15T07:12:46;19.50;58.20
7254;DHT22;4060;49.186;9.226;2023-05-15T07:15:17;19.50;58.20
7254;DHT22;4060;49.186;9.226;2023-05-15T07:17:47;19.50;58.00
7254;DHT22;4060;49.186;9.226;2023-05-15T07:20:16;19.50;58.00
7254;DHT22;4060;49.186;9.226;2023-05-15T07:22:46;19.60;58.20
7254;DHT22;4060;49.186;9.226;2023-05-15T07:25:15;19.60;58.20
7254;DHT22;4060;49.186;9.226;2023-05-15T07:27:45;19.60;58.10
7254;DHT22;4060;49.186;9.226;2023-05-15T07:30:14;19.70;58.10
7254;DHT22;4060;49.186;9.226;2023-05-15T07:32:46;19.70;58.10
7254;DHT22;4060;49.186;9.226;2023-05-15T07:35:16;19.70;58.10
7254;DHT22;4060;49.186;9.226;2023-05-15T07:37:45;19.80;58.10
7254;DHT22;4060;49.186;9.226;2023-05-15T07:40:15;19.80;58.10
7254;DHT22;4060;49.186;9.226;2023-05-15T07:42:46;19.80;58.00
7254;DHT22;4060;49.186;9.226;2023-05-15T07:45:15;19.80;58.00
7254;DHT22;4060;49.186;9.226;2023-05-15T07:47:47;19.90;58.10
7254;DHT22;4060;49.186;9.226;2023-05-15T07:50:17;20.00;58.10
7254;DHT22;4060;49.186;9.226;2023-05-15T07:52:46;20.00;58.00
7254;DHT22;4060;49.186;9.226;2023-05-15T07:55:16;20.00;57.90
7254;DHT22;4060;49.186;9.226;2023-05-15T07:57:45;20.10;57.90
7254;DHT22;4060;49.186;9.226;2023-05-15T08:00:16;20.10;57.70
7254;DHT22;4060;49.186;9.226;2023-05-15T08:02:48;20.20;57.70
7254;DHT22;4060;49.186;9.226;2023-05-15T08:05:18;20.20;57.60
7254;DHT22;4060;49.186;9.226;2023-05-15T08:07:47;20.20;57.60
7254;DHT22;4060;49.186;9.226;2023-05-15T08:10:17;20.30;57.60
7254;DHT22;4060;49.186;9.226;2023-05-15T08:12:47;20.30;57.50
7254;DHT22;4060;49.186;9.226;2023-05-15T08:15:17;20.30;57.40
7254;DHT22;4060;49.186;9.226;2023-05-15T08:17:48;20.40;57.40
7254;DHT22;4060;49.186;9.226;2023-05-15T08:20:18;20.40;57.30
7254;DHT22;4060;49.186;9.226;2023-05-15T08:22:47;20.50;57.30
7254;DHT22;4060;49.186;9.226;2023-05-15T08:25:17;20.50;57.30
7254;DHT22;4060;49.186;9.226;2023-05-15T08:27:47;20.50;57.10
7254;DHT22;4060;49.186;9.226;2023-05-15T08:30:17;20.60;57.00
7254;DHT22;4060;49.186;9.226;2023-05-15T08:32:49;20.60;57.00
7254;DHT22;4060;49.186;9.226;2023-05-15T08:35:19;20.60;56.90
7254;DHT22;4060;49.186;9.226;2023-05-15T08:37:48;20.70;56.90
7254;DHT22;4060;49.186;9.226;2023-05-15T08:40:19;20.70;56.70
7254;DHT22;4060;49.186;9.226;2023-05-15T08:42:51;20.80;56.80
7254;DHT22;4060;49.186;9.226;2023-05-15T08:45:22;20.80;56.80
7254;DHT22;4060;49.186;9.226;2023-05-15T08:47:54;20.90;56.90
7254;DHT22;4060;49.186;9.226;2023-05-15T08:50:24;20.90;56.70
7254;DHT22;4060;49.186;9.226;2023-05-15T08:52:55;20.90;56.50
7254;DHT22;4060;49.186;9.226;2023-05-15T08:55:28;20.90;56.50
7254;DHT22;4060;49.186;9.226;2023-05-15T08:57:58;21.00;56.30
7254;DHT22;4060;49.186;9.226;2023-05-15T09:00:28;21.00;56.00
7254;DHT22;4060;49.186;9.226;2023-05-15T09:03:00;21.00;55.90
7254;DHT22;4060;49.186;9.226;2023-05-15T09:05:29;21.00;55.90
7254;DHT22;4060;49.186;9.226;2023-05-15T09:07:59;21.10;55.80
7254;DHT22;4060;49.186;9.226;2023-05-15T09:10:33;21.10;55.70
7254;DHT22;4060;49.186;9.226;2023-05-15T09:13:03;21.10;55.50
7254;DHT22;4060;49.186;9.226;2023-05-15T09:15:34;21.10;55.30
7254;DHT22;4060;49.186;9.226;2023-05-15T09:18:06;21.10;55.30
7254;DHT22;4060;49.186;9.226;2023-05-15T09:20:36;21.20;55.30
7254;DHT22;4060;49.186;9.226;2023-05-15T09:23:22;21.20;55.30
7254;DHT22;4060;49.186;9.226;2023-05-15T09:25:52;21.20;55.10
7254;DHT22;4060;49.186;9.226;2023-05-15T09:28:27;21.20;55.00
7254;DHT22;4060;49.186;9.226;2023-05-15T09:30:58;21.20;54.80
7254;DHT22;4060;49.186;9.226;2023-05-15T09:33:31;21.30;54.80
7254;DHT22;4060;49.186;9.226;2023-05-15T09:36:00;21.30;54.60
7254;DHT22;4060;49.186;9.226;2023-05-15T09:38:31;21.30;54.20
7254;DHT22;4060;49.186;9.226;2023-05-15T09:41:02;21.30;53.90
7254;DHT22;4060;49.186;9.226;2023-05-15T09:43:35;21.30;54.00
7254;DHT22;4060;49.186;9.226;2023-05-15T09:46:06;21.30;53.90
7254;DHT22;4060;49.186;9.226;2023-05-15T09:48:40;21.30;54.00
7254;DHT22;4060;49.186;9.226;2023-05-15T09:51:16;21.40;54.10
7254;DHT22;4060;49.186;9.226;2023-05-15T09:53:48;21.40;54.00
7254;DHT22;4060;49.186;9.226;2023-05-15T09:56:19;21.40;53.90
7254;DHT22;4060;49.186;9.226;2023-05-15T09:58:52;21.50;54.00
7254;DHT22;4060;49.186;9.226;2023-05-15T10:01:23;21.50;53.90
7254;DHT22;4060;49.186;9.226;2023-05-15T10:04:04;21.50;53.90
7254;DHT22;4060;49.186;9.226;2023-05-15T10:06:35;21.60;53.80
7254;DHT22;4060;49.186;9.226;2023-05-15T10:09:05;21.60;53.60
7254;DHT22;4060;49.186;9.226;2023-05-15T10:11:37;21.70;53.70
7254;DHT22;4060;49.186;9.226;2023-05-15T10:14:07;21.70;53.50
7254;DHT22;4060;49.186;9.226;2023-05-15T10:16:38;21.80;53.50
7254;DHT22;4060;49.186;9.226;2023-05-15T10:19:11;21.80;53.40
7254;DHT22;4060;49.186;9.226;2023-05-15T10:21:41;21.90;53.40
7254;DHT22;4060;49.186;9.226;2023-05-15T10:24:11;21.90;53.20
7254;DHT22;4060;49.186;9.226;2023-05-15T10:26:41;21.90;53.10
7254;DHT22;4060;49.186;9.226;2023-05-15T10:29:12;21.90;53.00
7254;DHT22;4060;49.186;9.226;2023-05-15T10:31:42;22.00;52.90
7254;DHT22;4060;49.186;9.226;2023-05-15T10:34:13;22.00;52.50
7254;DHT22;4060;49.186;9.226;2023-05-15T10:36:44;22.00;51.90
7254;DHT22;4060;49.186;9.226;2023-05-15T10:39:14;22.00;51.40
7254;DHT22;4060;49.186;9.226;2023-05-15T10:41:44;22.00;51.20
7254;DHT22;4060;49.186;9.226;2023-05-15T10:44:15;22.00;51.20
7254;DHT22;4060;49.186;9.226;2023-05-15T10:46:45;22.00;51.20
7254;DHT22;4060;49.186;9.226;2023-05-15T10:49:17;21.90;51.10
7254;DHT22;4060;49.186;9.226;2023-05-15T10:51:46;22.00;51.20
7254;DHT22;4060;49.186;9.226;2023-05-15T10:54:16;22.00;51.20
7254;DHT22;4060;49.186;9.226;2023-05-15T10:56:45;22.00;51.10
7254;DHT22;4060;49.186;9.226;2023-05-15T10:59:15;22.00;51.10
7254;DHT22;4060;49.186;9.226;2023-05-15T11:01:44;22.00;51.00
7254;DHT22;4060;49.186;9.226;2023-05-15T11:04:19;22.00;51.00
7254;DHT22;4060;49.186;9.226;2023-05-15T11:07:12;22.00;51.00
7254;DHT22;4060;49.186;9.226;2023-05-15T11:09:42;22.00;50.80
7254;DHT22;4060;49.186;9.226;2023-05-15T11:12:12;22.00;51.00
7254;DHT22;4060;49.186;9.226;2023-05-15T11:14:42;22.00;50.90
7254;DHT22;4060;49.186;9.226;2023-05-15T11:17:12;22.00;51.00
7254;DHT22;4060;49.186;9.226;2023-05-15T11:20:07;22.00;51.20
7254;DHT22;4060;49.186;9.226;2023-05-15T11:22:37;22.00;51.60
7254;DHT22;4060;49.186;9.226;2023-05-15T11:25:08;21.90;52.20
7254;DHT22;4060;49.186;9.226;2023-05-15T11:27:39;21.90;52.00
7254;DHT22;4060;49.186;9.226;2023-05-15T11:30:11;21.90;52.10
7254;DHT22;4060;49.186;9.226;2023-05-15T11:32:48;21.90;52.20
7254;DHT22;4060;49.186;9.226;2023-05-15T11:35:22;21.80;52.30
7254;DHT22;4060;49.186;9.226;2023-05-15T11:37:53;21.80;52.50
7254;DHT22;4060;49.186;9.226;2023-05-15T11:40:24;21.80;52.60
7254;DHT22;4060;49.186;9.226;2023-05-15T11:43:05;21.70;52.70
7254;DHT22;4060;49.186;9.226;2023-05-15T11:45:36;21.70;52.80
7254;DHT22;4060;49.186;9.226;2023-05-15T11:48:09;21.70;52.80
7254;DHT22;4060;49.186;9.226;2023-05-15T11:50:43;21.70;52.90
7254;DHT22;4060;49.186;9.226;2023-05-15T11:53:13;21.70;52.90
7254;DHT22;4060;49.186;9.226;2023-05-15T11:55:43;21.60;52.90
7254;DHT22;4060;49.186;9.226;2023-05-15T11:58:15;21.70;53.00
7254;DHT22;4060;49.186;9.226;2023-05-15T12:00:46;21.70;53.20
7254;DHT22;4060;49.186;9.226;2023-05-15T12:03:17;21.70;52.90
7254;DHT22;4060;49.186;9.226;2023-05-15T12:05:48;21.70;52.70
7254;DHT22;4060;49.186;9.226;2023-05-15T12:08:17;21.70;52.70
7254;DHT22;4060;49.186;9.226;2023-05-15T12:10:48;21.70;52.80
7254;DHT22;4060;49.186;9.226;2023-05-15T12:13:18;21.80;53.00
7254;DHT22;4060;49.186;9.226;2023-05-15T12:15:47;21.80;53.00
7254;DHT22;4060;49.186;9.226;2023-05-15T12:18:17;21.80;52.90
7254;DHT22;4060;49.186;9.226;2023-05-15T12:20:51;21.80;52.90
7254;DHT22;4060;49.186;9.226;2023-05-15T12:23:21;21.90;53.00
7254;DHT22;4060;49.186;9.226;2023-05-15T12:25:53;21.90;52.90
7254;DHT22;4060;49.186;9.226;2023-05-15T12:28:25;21.90;52.90
7254;DHT22;4060;49.186;9.226;2023-05-15T12:30:54;22.00;52.90
7254;DHT22;4060;49.186;9.226;2023-05-15T12:33:25;22.00;52.90
7254;DHT22;4060;49.186;9.226;2023-05-15T12:35:56;22.00;52.90
7254;DHT22;4060;49.186;9.226;2023-05-15T12:38:26;22.00;52.90
7254;DHT22;4060;49.186;9.226;2023-05-15T12:41:00;22.10;52.90
7254;DHT22;4060;49.186;9.226;2023-05-15T12:43:30;22.10;52.90
7254;DHT22;4060;49.186;9.226;2023-05-15T12:46:00;22.10;52.80
7254;DHT22;4060;49.186;9.226;2023-05-15T12:48:30;22.10;52.70
7254;DHT22;4060;49.186;9.226;2023-05-15T12:51:08;22.10;52.70
7254;DHT22;4060;49.186;9.226;2023-05-15T12:53:40;22.20;52.60
7254;DHT22;4060;49.186;9.226;2023-05-15T12:56:15;22.20;52.60
7254;DHT22;4060;49.186;9.226;2023-05-15T12:58:54;22.20;52.50
7254;DHT22;4060;49.186;9.226;2023-05-15T13:01:24;22.20;52.40
7254;DHT22;4060;49.186;9.226;2023-05-15T13:03:55;22.20;52.30
7254;DHT22;4060;49.186;9.226;2023-05-15T13:06:28;22.20;52.30
7254;DHT22;4060;49.186;9.226;2023-05-15T13:08:59;22.20;52.30
7254;DHT22;4060;49.186;9.226;2023-05-15T13:11:30;22.20;52.30
7254;DHT22;4060;49.186;9.226;2023-05-15T13:13:59;22.30;52.30
7254;DHT22;4060;49.186;9.226;2023-05-15T13:16:30;22.30;52.10
7254;DHT22;4060;49.186;9.226;2023-05-15T13:18:59;22.30;52.00
7254;DHT22;4060;49.186;9.226;2023-05-15T13:21:31;22.30;52.00
7254;DHT22;4060;49.186;9.226;2023-05-15T13:24:01;22.30;51.90
7254;DHT22;4060;49.186;9.226;2023-05-15T13:26:31;22.30;51.80
7254;DHT22;4060;49.186;9.226;2023-05-15T13:29:01;22.30;51.70
7254;DHT22;4060;49.186;9.226;2023-05-15T13:31:32;22.30;51.60
7254;DHT22;4060;49.186;9.226;2023-05-15T13:34:01;22.30;51.60
7254;DHT22;4060;49.186;9.226;2023-05-15T13:36:33;22.40;51.70
7254;DHT22;4060;49.186;9.226;2023-05-15T13:39:03;22.40;51.40
7254;DHT22;4060;49.186;9.226;2023-05-15T13:41:34;22.40;51.20
7254;DHT22;4060;49.186;9.226;2023-05-15T13:44:04;22.40;50.90
7254;DHT22;4060;49.186;9.226;2023-05-15T13:46:33;22.40;50.50
7254;DHT22;4060;49.186;9.226;2023-05-15T13:49:02;22.40;50.20
7254;DHT22;4060;49.186;9.226;2023-05-15T13:51:34;22.40;49.70
7254;DHT22;4060;49.186;9.226;2023-05-15T13:54:03;22.40;49.60
7254;DHT22;4060;49.186;9.226;2023-05-15T13:56:33;22.40;49.50
7254;DHT22;4060;49.186;9.226;2023-05-15T13:59:02;22.50;49.40
7254;DHT22;4060;49.186;9.226;2023-05-15T14:01:31;22.50;49.40
7254;DHT22;4060;49.186;9.226;2023-05-15T14:04:01;22.50;49.50
7254;DHT22;4060;49.186;9.226;2023-05-15T14:06:32;22.50;49.30
7254;DHT22;4060;49.186;9.226;2023-05-15T14:09:03;22.50;49.20
7254;DHT22;4060;49.186;9.226;2023-05-15T14:11:33;22.60;49.30
7254;DHT22;4060;49.186;9.226;2023-05-15T14:14:03;22.60;49.20
7254;DHT22;4060;49.186;9.226;2023-05-15T14:16:32;22.60;49.10
7254;DHT22;4060;49.186;9.226;2023-05-15T14:19:01;22.60;48.90
7254;DHT22;4060;49.186;9.226;2023-05-15T14:21:34;22.60;48.80
7254;DHT22;4060;49.186;9.226;2023-05-15T14:24:03;22.60;48.80
7254;DHT22;4060;49.186;9.226;2023-05-15T14:26:33;22.60;48.80
7254;DHT22;4060;49.186;9.226;2023-05-15T14:29:02;22.60;48.70
7254;DHT22;4060;49.186;9.226;2023-05-15T14:31:31;22.60;48.60
7254;DHT22;4060;49.186;9.226;2023-05-15T14:34:00;22.60;48.50
7254;DHT22;4060;49.186;9.226;2023-05-15T14:36:33;22.70;48.60
7254;DHT22;4060;49.186;9.226;2023-05-15T14:39:03;22.70;48.60
7254;DHT22;4060;49.186;9.226;2023-05-15T14:41:31;22.70;48.70
7254;DHT22;4060;49.186;9.226;2023-05-15T14:44:00;22.70;48.70
7254;DHT22;4060;49.186;9.226;2023-05-15T14:46:29;22.70;48.70
7254;DHT22;4060;49.186;9.226;2023-05-15T14:48:58;22.70;48.70
7254;DHT22;4060;49.186;9.226;2023-05-15T14:51:28;22.70;48.50
7254;DHT22;4060;49.186;9.226;2023-05-15T14:54:00;22.70;48.50
7254;DHT22;4060;49.186;9.226;2023-05-15T14:56:31;22.70;48.40
7254;DHT22;4060;49.186;9.226;2023-05-15T14:59:00;22.70;48.40
7254;DHT22;4060;49.186;9.226;2023-05-15T15:01:29;22.70;48.30
7254;DHT22;4060;49.186;9.226;2023-05-15T15:03:58;22.80;48.40
7254;DHT22;4060;49.186;9.226;2023-05-15T15:06:27;22.70;48.20
7254;DHT22;4060;49.186;9.226;2023-05-15T15:09:10;22.70;48.00
7254;DHT22;4060;49.186;9.226;2023-05-15T15:11:41;22.80;48.00
7254;DHT22;4060;49.186;9.226;2023-05-15T15:14:11;22.80;48.10
7254;DHT22;4060;49.186;9.226;2023-05-15T15:16:40;22.70;48.00
7254;DHT22;4060;49.186;9.226;2023-05-15T15:19:10;22.70;47.90
7254;DHT22;4060;49.186;9.226;2023-05-15T15:21:39;22.80;47.90
7254;DHT22;4060;49.186;9.226;2023-05-15T15:24:11;22.80;47.80
7254;DHT22;4060;49.186;9.226;2023-05-15T15:26:40;22.80;47.90
7254;DHT22;4060;49.186;9.226;2023-05-15T15:29:10;22.80;47.80
7254;DHT22;4060;49.186;9.226;2023-05-15T15:31:41;22.80;47.80
7254;DHT22;4060;49.186;9.226;2023-05-15T15:34:11;22.80;47.70
7254;DHT22;4060;49.186;9.226;2023-05-15T15:36:41;22.90;47.70
7254;DHT22;4060;49.186;9.226;2023-05-15T15:39:13;22.90;47.60
7254;DHT22;4060;49.186;9.226;2023-05-15T15:41:42;22.90;47.10
7254;DHT22;4060;49.186;9.226;2023-05-15T15:44:12;22.90;46.50
7254;DHT22;4060;49.186;9.226;2023-05-15T15:46:41;23.10;46.30
7254;DHT22;4060;49.186;9.226;2023-05-15T15:49:11;23.30;46.10
7254;DHT22;4060;49.186;9.226;2023-05-15T15:51:41;23.60;46.50
7254;DHT22;4060;49.186;9.226;2023-05-15T15:54:12;23.90;45.80
7254;DHT22;4060;49.186;9.226;2023-05-15T15:56:41;24.20;45.40
7254;DHT22;4060;49.186;9.226;2023-05-15T15:59:10;24.40;45.10
7254;DHT22;4060;49.186;9.226;2023-05-15T16:01:40;24.60;44.70
7254;DHT22;4060;49.186;9.226;2023-05-15T16:04:09;24.80;44.40
7254;DHT22;4060;49.186;9.226;2023-05-15T16:06:39;25.00;44.20
7254;DHT22;4060;49.186;9.226;2023-05-15T16:09:08;25.10;43.80
7254;DHT22;4060;49.186;9.226;2023-05-15T16:11:40;25.30;43.60
7254;DHT22;4060;49.186;9.226;2023-05-15T16:14:09;25.40;43.40
7254;DHT22;4060;49.186;9.226;2023-05-15T16:16:39;25.60;43.20
7254;DHT22;4060;49.186;9.226;2023-05-15T16:19:08;25.60;43.50
7254;DHT22;4060;49.186;9.226;2023-05-15T16:21:38;25.70;42.80
7254;DHT22;4060;49.186;9.226;2023-05-15T16:24:07;25.80;42.70
7254;DHT22;4060;49.186;9.226;2023-05-15T16:26:36;25.80;42.50
7254;DHT22;4060;49.186;9.226;2023-05-15T16:29:09;25.90;42.50
7254;DHT22;4060;49.186;9.226;2023-05-15T16:31:39;25.90;42.30
7254;DHT22;4060;49.186;9.226;2023-05-15T16:34:08;25.90;42.30